Aeroporto :
LOGIN :

Iscrizione | Disclaimer

   EN    FR    IT 

 










Sommario :    VFR   VFR Marginale   IFR   IFR Intensivo   IFR Molto Intensivo
Visibilità : 
Base nubi : 
>= 8 km
>= 3000ft
5 / 8 km
1000 / 3000 ft
1500m / 5 km
500 / 1000 ft
800 / 1500m
200 / 500 ft
< 800m
< 200 ft
Simboli :   Temporali  Nebbia  Neve Forte  Precipitazioni Forti  Vento > 20 kt
SIGMETs :   Varie  Temporali  Ghiacco  Turbolenza  Onda orograficha  Ceneri Vulcaniche






- Altitudine del aeroporto : 935 ft


EBFS - Florennes

ULTIMO METAR :
  • 020755Z 01003KT 0200 FG SCT001 BKN003 05/05 Q1018 RED AMB TEMPO RED

METARs OBSOLETI :
  • 020725Z 01004KT 0200 FG SCT001 BKN003 05/05 Q1017 RED AMB TEMPO RED
  • 020655Z 02004KT 0200 FG SCT001 BKN003 05/05 Q1017 RED AMB TEMPO RED
  • 020633Z 36004KT 0200 FG SCT001 BKN003 05/05 Q1017 RED AMB TEMPO RED
  • 020555Z AUTO 01005KT 0500 FG OVC003/// 05/05 Q1018 RED
  • 020525Z AUTO 03005KT 0250 -RA OVC002/// 05/05 Q1018 RED

TAF TAF EBFS
Valido dal 02 a 07 ore il 02 a 16 ore UTC


020541Z 0207/0216 03005KT 1500 BR SCT002 BKN004
TEMPO 0207/0210 0500 FG SCT001 BKN002
BECMG 0210/0212 29005KT 6000 SCT005 BKN008
TEMPO 0214/0216 8000 SCT010 BKN012



MetMap, La meteo Aeronautica in un colpo d'occhio ! - Copyright ORBIFLY Dicembre 2007 - Disclaimer

ORBIFLY MET'MAP TEAM :

Programmazione e sviluppo : Alexandra Zaïnal
Concezione : Baudouin d'Aumeries
Aiuto per la programmazione : Marc-Olivier Méhu
Supporto tecnico e logistico : Manuel Goepfert
Aiuto per la traduzione : Arnaldo La Scala

Contatto : metmap@orbifly.com




FONTI E CREDITI :

   NOAA